createdAt,value
2023-03-02T00:02:29.739Z,89.81
2023-03-02T00:07:38.262Z,89.22
2023-03-02T00:13:52.353Z,89.21
2023-03-02T00:19:44.971Z,89.66
2023-03-02T00:24:53.127Z,89.62
2023-03-02T00:30:35.935Z,89.39
2023-03-02T00:36:03.103Z,89.11
2023-03-02T00:41:29.389Z,89.05
2023-03-02T00:47:03.042Z,89.59
2023-03-02T00:52:08.666Z,89.99
2023-03-02T00:57:12.072Z,89.90
2023-03-02T01:02:30.325Z,89.94
2023-03-02T01:07:42.342Z,90.11
2023-03-02T01:13:06.586Z,90.37
2023-03-02T01:18:33.065Z,90.51
2023-03-02T01:23:46.748Z,90.44
2023-03-02T01:28:55.576Z,90.48
2023-03-02T01:34:01.751Z,90.12
2023-03-02T01:39:07.572Z,90.03
2023-03-02T01:44:57.459Z,90.91
2023-03-02T01:51:11.265Z,91.40
2023-03-02T01:56:31.329Z,90.78
2023-03-02T02:02:17.740Z,90.14
2023-03-02T02:07:21.823Z,90.49
2023-03-02T02:12:38.605Z,90.70
2023-03-02T02:18:13.458Z,91.47
2023-03-02T02:24:09.776Z,91.76
2023-03-02T02:29:23.037Z,94.24
2023-03-02T02:34:42.656Z,96.18
2023-03-02T02:39:49.101Z,97.85
2023-03-02T02:45:44.546Z,99.43
2023-03-02T02:50:48.271Z,100.00
2023-03-02T02:56:00.275Z,100.00
2023-03-02T03:01:07.151Z,100.00
2023-03-02T03:06:49.176Z,100.00
2023-03-02T03:12:01.423Z,100.00
2023-03-02T03:17:13.926Z,100.00
2023-03-02T03:22:26.454Z,100.00
2023-03-02T03:27:30.394Z,99.93
2023-03-02T03:32:54.041Z,99.75
2023-03-02T03:37:57.769Z,98.91
2023-03-02T03:43:04.961Z,98.70
2023-03-02T03:48:08.860Z,99.07
2023-03-02T03:53:15.577Z,98.63
2023-03-02T03:58:24.992Z,98.56
2023-03-02T04:04:11.393Z,98.50
2023-03-02T04:09:38.142Z,98.10
2023-03-02T04:14:54.350Z,98.08
2023-03-02T04:19:58.801Z,98.25
2023-03-02T04:25:24.519Z,98.74
2023-03-02T04:30:33.255Z,98.78
2023-03-02T04:35:46.676Z,98.76
2023-03-02T04:41:03.214Z,98.36
2023-03-02T04:46:15.771Z,98.05
2023-03-02T04:51:32.630Z,98.32
2023-03-02T04:57:17.371Z,98.66
2023-03-02T05:02:33.893Z,98.98
2023-03-02T05:07:44.796Z,99.43
2023-03-02T05:13:08.966Z,99.41
2023-03-02T05:18:14.865Z,99.25
2023-03-02T05:23:34.794Z,99.33
2023-03-02T05:28:38.749Z,99.62
2023-03-02T05:33:55.303Z,99.70
2023-03-02T05:39:42.734Z,99.96
2023-03-02T05:45:06.385Z,100.00
2023-03-02T05:50:53.365Z,99.95
2023-03-02T05:56:22.468Z,99.97
2023-03-02T06:01:36.881Z,100.00
2023-03-02T06:06:47.613Z,100.00
2023-03-02T06:12:01.586Z,100.00
2023-03-02T06:17:29.206Z,100.00
2023-03-02T06:22:53.153Z,100.00
2023-03-02T06:28:02.101Z,100.00
2023-03-02T06:33:21.318Z,100.00
2023-03-02T06:38:27.784Z,100.00
2023-03-02T06:44:01.728Z,100.00
2023-03-02T06:49:19.341Z,100.00
2023-03-02T06:54:24.056Z,100.00
2023-03-02T06:59:27.761Z,100.00
2023-03-02T07:04:48.947Z,100.00
2023-03-02T07:09:52.320Z,100.00
2023-03-02T07:14:55.860Z,100.00
2023-03-02T07:19:59.512Z,100.00
2023-03-02T07:25:13.690Z,100.00
2023-03-02T07:30:32.633Z,100.00
2023-03-02T07:35:36.073Z,100.00
2023-03-02T07:40:43.071Z,100.00
2023-03-02T07:45:46.668Z,100.00
2023-03-02T07:50:50.035Z,100.00
2023-03-02T07:56:10.845Z,100.00
2023-03-02T08:01:14.225Z,100.00
2023-03-02T08:06:27.543Z,100.00
2023-03-02T08:11:51.143Z,100.00
2023-03-02T08:17:10.704Z,100.00
2023-03-02T08:22:21.456Z,100.00
2023-03-02T08:27:32.837Z,100.00
2023-03-02T08:33:07.472Z,100.00
2023-03-02T08:38:13.705Z,100.00
2023-03-02T08:43:17.423Z,100.00
2023-03-02T08:48:21.724Z,100.00
2023-03-02T08:53:49.828Z,100.00
2023-03-02T08:59:14.185Z,100.00
2023-03-02T09:05:01.419Z,100.00
2023-03-02T09:10:10.457Z,100.00
2023-03-02T09:15:13.938Z,100.00
2023-03-02T09:20:32.283Z,100.00
2023-03-02T09:25:35.656Z,100.00
2023-03-02T09:30:42.129Z,100.00
2023-03-02T09:35:46.790Z,100.00
2023-03-02T09:41:04.060Z,100.00
2023-03-02T09:46:34.935Z,100.00
2023-03-02T09:52:04.270Z,99.85
2023-03-02T09:57:36.330Z,99.48
2023-03-02T10:03:22.688Z,98.15
2023-03-02T10:08:34.478Z,97.18
2023-03-02T10:13:56.123Z,96.86
2023-03-02T10:20:00.217Z,96.41
2023-03-02T10:26:09.998Z,94.51
2023-03-02T10:31:52.967Z,93.23
2023-03-02T10:37:02.353Z,92.42
2023-03-02T10:42:23.911Z,91.59
2023-03-02T10:47:29.100Z,91.19
2023-03-02T10:52:32.624Z,89.93
2023-03-02T10:57:38.839Z,88.96
2023-03-02T11:02:53.609Z,87.90
2023-03-02T11:08:11.562Z,87.60
2023-03-02T11:13:28.584Z,87.49
2023-03-02T11:18:46.104Z,87.00
2023-03-02T11:24:21.894Z,87.00
2023-03-02T11:29:45.696Z,86.90
2023-03-02T11:35:00.603Z,86.21
2023-03-02T11:40:16.437Z,85.76
2023-03-02T11:45:30.575Z,85.56
2023-03-02T11:50:41.298Z,85.23
2023-03-02T11:55:48.648Z,85.51
2023-03-02T12:00:55.875Z,85.47
2023-03-02T12:06:11.123Z,84.66
2023-03-02T12:11:20.404Z,84.79
2023-03-02T12:16:38.896Z,84.71
2023-03-02T12:22:05.781Z,84.42
2023-03-02T12:27:20.979Z,84.18
2023-03-02T12:32:33.491Z,83.96
2023-03-02T12:38:19.294Z,83.33
2023-03-02T12:43:22.639Z,83.01
2023-03-02T12:49:30.294Z,82.63
2023-03-02T12:54:36.928Z,82.24
2023-03-02T12:59:40.711Z,81.17
2023-03-02T13:05:07.438Z,81.02
2023-03-02T13:11:03.520Z,80.68
2023-03-02T13:16:32.546Z,80.29
2023-03-02T13:22:12.477Z,80.17
2023-03-02T13:28:01.622Z,80.40
2023-03-02T13:33:26.869Z,81.38
2023-03-02T13:38:40.442Z,81.90
2023-03-02T13:44:21.512Z,81.28
2023-03-02T13:49:37.833Z,81.56
2023-03-02T13:54:44.116Z,81.76
2023-03-02T13:59:48.309Z,82.38
2023-03-02T14:05:22.861Z,82.28
2023-03-02T14:10:50.550Z,82.61
2023-03-02T14:15:53.979Z,83.13
2023-03-02T14:21:00.231Z,83.74
2023-03-02T14:26:34.930Z,84.25
2023-03-02T14:32:07.413Z,84.37
2023-03-02T14:37:16.879Z,83.66
2023-03-02T14:42:21.520Z,84.32
2023-03-02T14:48:05.358Z,84.23
2023-03-02T14:53:30.735Z,84.38
2023-03-02T14:58:37.720Z,84.49
2023-03-02T15:03:41.105Z,84.42
2023-03-02T15:08:49.230Z,84.76
2023-03-02T15:13:52.696Z,84.38
2023-03-02T15:18:59.051Z,83.86
2023-03-02T15:24:02.583Z,83.79
2023-03-02T15:29:15.141Z,83.38
2023-03-02T15:34:18.613Z,82.64
2023-03-02T15:39:27.700Z,82.17
2023-03-02T15:44:38.391Z,81.77
2023-03-02T15:50:02.251Z,81.48
2023-03-02T15:55:06.028Z,81.10
2023-03-02T16:00:35.308Z,80.83
2023-03-02T16:05:38.801Z,80.87
2023-03-02T16:11:02.480Z,80.76
2023-03-02T16:16:25.459Z,80.54
2023-03-02T16:21:29.110Z,80.66
2023-03-02T16:26:53.597Z,80.76
2023-03-02T16:32:06.670Z,80.65
2023-03-02T16:37:20.311Z,80.91
2023-03-02T16:42:23.770Z,80.78
2023-03-02T16:47:49.022Z,81.00
2023-03-02T16:53:15.216Z,81.30
2023-03-02T16:58:21.198Z,81.56
2023-03-02T17:03:40.993Z,81.75
2023-03-02T17:08:54.622Z,81.87
2023-03-02T17:13:57.867Z,82.37
2023-03-02T17:19:08.802Z,82.62
2023-03-02T17:24:45.473Z,83.13
2023-03-02T17:30:01.275Z,83.47
2023-03-02T17:35:17.074Z,83.62
2023-03-02T17:40:20.616Z,83.76
2023-03-02T17:45:44.569Z,84.38
2023-03-02T17:52:08.672Z,84.80
2023-03-02T17:57:55.596Z,84.82
2023-03-02T18:03:45.312Z,85.23
2023-03-02T18:08:50.708Z,85.23
2023-03-02T18:14:05.675Z,85.62
2023-03-02T18:19:17.477Z,86.10
2023-03-02T18:24:20.813Z,86.11
2023-03-02T18:29:27.707Z,86.10
2023-03-02T18:34:53.421Z,86.33
2023-03-02T18:40:00.597Z,86.49
2023-03-02T18:45:27.477Z,87.14
2023-03-02T18:50:39.909Z,87.41
2023-03-02T18:55:45.889Z,87.03
2023-03-02T19:01:12.697Z,87.04
2023-03-02T19:06:16.634Z,86.99
2023-03-02T19:11:30.536Z,87.40
2023-03-02T19:16:40.371Z,87.78
2023-03-02T19:21:54.000Z,87.79
2023-03-02T19:26:57.431Z,88.20
2023-03-02T19:32:06.515Z,88.34
2023-03-02T19:37:33.299Z,88.31
2023-03-02T19:43:22.985Z,88.15
2023-03-02T19:49:06.851Z,88.13
2023-03-02T19:54:10.248Z,88.79
2023-03-02T19:59:13.631Z,88.49
2023-03-02T20:04:18.264Z,88.53
2023-03-02T20:09:21.825Z,88.89
2023-03-02T20:14:36.366Z,89.20
2023-03-02T20:19:39.720Z,89.22
2023-03-02T20:24:43.803Z,89.14
2023-03-02T20:29:49.863Z,89.03
2023-03-02T20:35:23.841Z,89.07
2023-03-02T20:40:28.219Z,89.35
2023-03-02T20:45:46.840Z,89.36
2023-03-02T20:50:53.405Z,89.90
2023-03-02T20:56:07.245Z,89.93
2023-03-02T21:01:39.752Z,89.83
2023-03-02T21:07:06.693Z,89.17
2023-03-02T21:12:30.743Z,89.15
2023-03-02T21:17:34.466Z,89.08
2023-03-02T21:23:41.654Z,89.08
2023-03-02T21:30:13.019Z,89.32
2023-03-02T21:35:40.936Z,89.49
2023-03-02T21:40:47.099Z,89.84
2023-03-02T21:45:51.589Z,89.73
2023-03-02T21:50:58.402Z,89.41
2023-03-02T21:56:10.713Z,89.36
2023-03-02T22:01:26.147Z,90.45
2023-03-02T22:06:54.682Z,90.25
2023-03-02T22:12:18.527Z,89.98
2023-03-02T22:18:15.762Z,89.87
2023-03-02T22:24:06.761Z,90.09
2023-03-02T22:29:52.357Z,90.15
2023-03-02T22:35:22.125Z,90.09
2023-03-02T22:40:35.696Z,90.40
2023-03-02T22:46:15.574Z,89.98
2023-03-02T22:52:10.440Z,90.12
2023-03-02T22:57:57.535Z,90.27
2023-03-02T23:03:25.303Z,90.59
2023-03-02T23:08:31.738Z,90.80
2023-03-02T23:13:40.688Z,90.75
2023-03-02T23:18:57.484Z,91.53
2023-03-02T23:24:10.842Z,90.68
2023-03-02T23:29:48.518Z,90.89
2023-03-02T23:35:05.133Z,90.45
2023-03-02T23:40:12.098Z,90.67
2023-03-02T23:45:35.570Z,90.59
2023-03-02T23:51:21.584Z,90.48
2023-03-02T23:56:45.069Z,90.94
